Aérodrome :
LOGIN :

S'inscrire | Disclaimer

   EN    FR    IT 

 










Légende :    VFR   VFR Marginal   IFR   IFR Intensif   IFR Très Intensif
Visi : 
Plafond : 
>= 8 km
>= 3000ft
5 à 8 km
1000 à 3000 ft
1500m à 5 km
500 à 1000 ft
800 à 1500m
200 à 500 ft
< 800m
< 200 ft
Symboles :   Orages  Brouillard  Fortes neiges  Fortes précipitations  Vent > 20 kt
SIGMETs :   Divers  Orages  Givrage  Turbulence  Onde Orograph.  Cendres Volcan.







- Altitude de l'aérodrome : 10 ft
- Code IATA : AAL


EKYT - Aalborg

DERNIER METAR :
  • 171750Z AUTO 09004KT 5000 NCD M02/M03 Q1022

METARs EXPIRÉS :
  • 171720Z AUTO 09002KT 5000 NCD M02/M03 Q1022
  • 171650Z AUTO 09003KT 6000 NCD M02/M03 Q1021
  • 171620Z AUTO 10005KT 7000 NCD M02/M03 Q1021
  • 171553Z AUTO 09005KT 7000 NCD M02/M03 Q1021
  • 171520Z AUTO 09003KT 9000 FEW043/// M01/M03 Q1021

TAF TAF EKYT
Valide du 17 à 18h jusqu'au 18 à 18h UTC


171703Z 1718/1818 10005KT 9000 BKN030
TEMPO 1718/1721 7000
TEMPO 1721/1803 4000 BR
TEMPO 1803/1810 4000 BR BKN010
BECMG 1810/1812 14008KT 4000 -DZ BKN008
TEMPO 1812/1816 1200 BR BKN003
BECMG 1816/1818 0700 FG BKN002
Pas de NOTAMs connus pour ce terrain.



MET'MAP, la Météo Aéronautique d'un coup d'oeil ! - Copyright ORBIFLY Décembre 2007 - Disclaimer

ORBIFLY MET'MAP TEAM :

Programmation & Développement : Alexandra Zaïnal
Conception & Développement : Baudouin d'Aumeries
Co-Programmation & Développement : Marc-Olivier Méhu
Soutien technique & logistique : Manuel Goepfert

Contact : metmap@orbifly.com




SOURCES & CREDITS :

   NOAA